createdAt,value
2023-01-05T00:01:50.570Z,17.30
2023-01-05T00:04:18.345Z,19.05
2023-01-05T00:06:45.942Z,19.83
2023-01-05T00:09:16.109Z,15.57
2023-01-05T00:12:02.856Z,17.50
2023-01-05T00:14:52.773Z,21.30
2023-01-05T00:17:42.020Z,16.05
2023-01-05T00:20:41.018Z,18.95
2023-01-05T00:23:10.839Z,17.08
2023-01-05T00:25:41.035Z,12.68
2023-01-05T00:28:09.063Z,17.58
2023-01-05T00:30:46.468Z,18.77
2023-01-05T00:33:17.415Z,21.15
2023-01-05T00:35:45.007Z,17.75
2023-01-05T00:38:12.626Z,20.10
2023-01-05T00:40:39.362Z,18.83
2023-01-05T00:43:08.769Z,19.10
2023-01-05T00:45:35.624Z,16.02
2023-01-05T00:48:02.424Z,16.92
2023-01-05T00:50:29.318Z,17.52
2023-01-05T00:52:56.041Z,14.77
2023-01-05T00:55:22.885Z,28.02
2023-01-05T00:57:49.602Z,17.45
2023-01-05T01:00:19.778Z,16.60
2023-01-05T01:02:50.411Z,17.75
2023-01-05T01:05:17.350Z,12.00
2023-01-05T01:07:44.111Z,19.52
2023-01-05T01:10:12.223Z,18.73
2023-01-05T01:12:38.972Z,17.98
2023-01-05T01:15:08.322Z,17.20
2023-01-05T01:17:35.168Z,17.10
2023-01-05T01:20:02.068Z,20.90
2023-01-05T01:22:29.130Z,14.88
2023-01-05T01:24:55.893Z,23.42
2023-01-05T01:27:22.734Z,17.55
2023-01-05T01:29:49.501Z,21.13
2023-01-05T01:32:16.278Z,15.65
2023-01-05T01:34:46.177Z,14.23
2023-01-05T01:37:13.256Z,22.70
2023-01-05T01:39:40.036Z,17.80
2023-01-05T01:42:14.680Z,24.80
2023-01-05T01:44:47.583Z,24.05
2023-01-05T01:47:25.794Z,20.15
2023-01-05T01:49:56.624Z,19.13
2023-01-05T01:52:32.756Z,25.38
2023-01-05T01:55:03.982Z,12.93
2023-01-05T01:57:32.166Z,16.83
2023-01-05T02:00:04.186Z,18.50
2023-01-05T02:02:31.200Z,22.52
2023-01-05T02:05:06.357Z,23.13
2023-01-05T02:07:39.786Z,16.58
2023-01-05T02:10:07.753Z,24.23
2023-01-05T02:13:35.894Z,27.85
2023-01-05T02:16:39.032Z,23.65
2023-01-05T02:19:23.706Z,29.85
2023-01-05T02:22:30.547Z,26.70
2023-01-05T02:25:06.808Z,20.65
2023-01-05T02:27:42.522Z,25.40
2023-01-05T02:30:30.836Z,23.90
2023-01-05T02:33:07.542Z,20.02
2023-01-05T02:36:11.130Z,14.70
2023-01-05T02:38:53.786Z,20.88
2023-01-05T02:41:44.291Z,19.17
2023-01-05T02:44:16.478Z,28.98
2023-01-05T02:46:43.221Z,25.98
2023-01-05T02:49:10.045Z,21.25
2023-01-05T02:51:44.517Z,17.88
2023-01-05T02:54:46.663Z,16.77
2023-01-05T02:57:45.773Z,22.15
2023-01-05T03:00:40.549Z,20.20
2023-01-05T03:03:39.148Z,20.67
2023-01-05T03:06:34.130Z,24.90
2023-01-05T03:09:04.539Z,21.98
2023-01-05T03:12:09.381Z,21.15
2023-01-05T03:14:48.303Z,14.68
2023-01-05T03:17:26.151Z,16.45
2023-01-05T03:19:55.283Z,16.27
2023-01-05T03:22:49.065Z,21.05
2023-01-05T03:25:43.736Z,20.05
2023-01-05T03:28:56.303Z,18.67
2023-01-05T03:32:18.383Z,14.73
2023-01-05T03:35:20.224Z,22.70
2023-01-05T03:37:59.548Z,16.88
2023-01-05T03:40:30.991Z,21.30
2023-01-05T03:43:03.088Z,27.40
2023-01-05T03:46:09.761Z,19.53
2023-01-05T03:48:36.572Z,20.00
2023-01-05T03:51:03.452Z,17.60
2023-01-05T03:53:32.309Z,22.00
2023-01-05T03:55:59.145Z,21.73
2023-01-05T03:58:26.086Z,25.83
2023-01-05T04:00:53.099Z,20.70
2023-01-05T04:03:19.956Z,25.17
2023-01-05T04:05:46.896Z,17.38
2023-01-05T04:08:13.679Z,23.48
2023-01-05T04:10:40.498Z,19.85
2023-01-05T04:13:07.266Z,19.92
2023-01-05T04:15:36.577Z,15.25
2023-01-05T04:18:03.568Z,21.65
2023-01-05T04:20:30.277Z,21.13
2023-01-05T04:22:58.188Z,14.43
2023-01-05T04:25:24.898Z,25.45
2023-01-05T04:27:51.739Z,16.98
2023-01-05T04:30:18.736Z,16.65
2023-01-05T04:32:45.434Z,21.52
2023-01-05T04:35:12.223Z,23.02
2023-01-05T04:37:39.468Z,22.45
2023-01-05T04:40:07.157Z,18.05
2023-01-05T04:42:33.892Z,12.30
2023-01-05T04:45:00.603Z,23.33
2023-01-05T04:47:27.390Z,23.80
2023-01-05T04:49:54.186Z,18.48
2023-01-05T04:52:20.978Z,14.85
2023-01-05T04:54:51.715Z,24.38
2023-01-05T04:57:18.576Z,20.83
2023-01-05T04:59:45.386Z,18.00
2023-01-05T05:02:12.882Z,19.85
2023-01-05T05:04:39.701Z,21.92
2023-01-05T05:07:07.535Z,19.27
2023-01-05T05:09:34.231Z,14.80
2023-01-05T05:12:01.077Z,24.17
2023-01-05T05:14:27.777Z,20.02
2023-01-05T05:16:54.453Z,17.98
2023-01-05T05:19:21.248Z,15.18
2023-01-05T05:21:48.092Z,20.52
2023-01-05T05:24:15.840Z,20.97
2023-01-05T05:26:42.599Z,19.92
2023-01-05T05:29:09.307Z,21.93
2023-01-05T05:31:36.711Z,18.23
2023-01-05T05:34:05.271Z,16.48
2023-01-05T05:36:33.404Z,22.92
2023-01-05T05:39:00.174Z,14.80
2023-01-05T05:41:26.894Z,18.90
2023-01-05T05:43:53.707Z,19.53
2023-01-05T05:46:20.497Z,17.53
2023-01-05T05:48:47.253Z,17.50
2023-01-05T05:51:14.003Z,25.60
2023-01-05T05:53:40.740Z,22.13
2023-01-05T05:56:07.969Z,20.83
2023-01-05T05:58:34.667Z,19.60
2023-01-05T06:01:01.562Z,19.58
2023-01-05T06:03:28.617Z,22.00
2023-01-05T06:05:55.496Z,19.52
2023-01-05T06:08:22.387Z,14.32
2023-01-05T06:10:50.817Z,17.85
2023-01-05T06:13:18.558Z,25.30
2023-01-05T06:15:45.415Z,19.95
2023-01-05T06:18:12.317Z,18.67
2023-01-05T06:20:41.153Z,21.40
2023-01-05T06:23:07.990Z,22.83
2023-01-05T06:25:36.686Z,23.73
2023-01-05T06:28:03.586Z,16.90
2023-01-05T06:30:30.305Z,16.25
2023-01-05T06:32:57.094Z,21.15
2023-01-05T06:35:24.033Z,28.50
2023-01-05T06:37:50.779Z,25.17
2023-01-05T06:40:17.601Z,25.40
2023-01-05T06:42:44.332Z,19.10
2023-01-05T06:45:15.641Z,22.73
2023-01-05T06:47:45.293Z,17.63
2023-01-05T06:50:12.189Z,18.85
2023-01-05T06:52:40.483Z,18.73
2023-01-05T06:55:12.353Z,22.45
2023-01-05T06:57:39.710Z,17.08
2023-01-05T07:00:12.604Z,24.13
2023-01-05T07:02:39.428Z,14.85
2023-01-05T07:05:07.271Z,18.98
2023-01-05T07:07:34.200Z,18.27
2023-01-05T07:10:01.341Z,18.83
2023-01-05T07:12:28.229Z,21.27
2023-01-05T07:14:57.707Z,20.73
2023-01-05T07:17:26.618Z,21.38
2023-01-05T07:19:53.494Z,21.65
2023-01-05T07:22:20.260Z,15.70
2023-01-05T07:24:47.024Z,23.42
2023-01-05T07:27:16.183Z,25.15
2023-01-05T07:29:42.982Z,17.85
2023-01-05T07:32:09.827Z,20.15
2023-01-05T07:34:36.598Z,23.60
2023-01-05T07:37:03.599Z,20.08
2023-01-05T07:39:30.339Z,15.57
2023-01-05T07:41:57.943Z,19.25
2023-01-05T07:44:24.769Z,18.45
2023-01-05T07:46:51.540Z,15.70
2023-01-05T07:49:18.998Z,17.10
2023-01-05T07:51:45.769Z,18.83
2023-01-05T07:54:12.580Z,17.65
2023-01-05T07:56:40.684Z,17.95
2023-01-05T07:59:07.721Z,17.63
2023-01-05T08:01:34.572Z,13.23
2023-01-05T08:04:01.847Z,19.00
2023-01-05T08:06:28.616Z,19.48
2023-01-05T08:08:56.843Z,15.60
2023-01-05T08:11:23.727Z,15.63
2023-01-05T08:13:59.418Z,21.67
2023-01-05T08:16:33.767Z,18.13
2023-01-05T08:19:00.785Z,17.37
2023-01-05T08:21:27.991Z,18.13
2023-01-05T08:23:54.872Z,13.80
2023-01-05T08:26:24.057Z,20.65
2023-01-05T08:28:54.716Z,16.95
2023-01-05T08:31:37.057Z,18.87
2023-01-05T08:34:04.888Z,18.67
2023-01-05T08:36:32.885Z,16.63
2023-01-05T08:39:01.526Z,20.67
2023-01-05T08:41:33.455Z,17.38
2023-01-05T08:44:04.498Z,13.38
2023-01-05T08:46:36.167Z,22.30
2023-01-05T08:49:08.225Z,27.37
2023-01-05T08:51:35.853Z,24.00
2023-01-05T08:54:02.633Z,22.58
2023-01-05T08:56:34.638Z,17.95
2023-01-05T08:59:05.053Z,18.77
2023-01-05T09:01:31.932Z,24.92
2023-01-05T09:03:58.800Z,18.60
2023-01-05T09:06:25.549Z,18.77
2023-01-05T09:08:52.309Z,16.77
2023-01-05T09:11:23.356Z,18.60
2023-01-05T09:14:03.279Z,20.50
2023-01-05T09:19:24.693Z,20.75
2023-01-05T09:21:54.891Z,23.60
2023-01-05T09:24:22.204Z,30.45
2023-01-05T09:26:49.528Z,12.65
2023-01-05T09:29:16.382Z,25.67
2023-01-05T09:31:44.002Z,22.15
2023-01-05T09:34:11.277Z,20.85
2023-01-05T09:36:39.006Z,21.20
2023-01-05T09:39:06.262Z,20.70
2023-01-05T09:41:55.515Z,12.67
2023-01-05T09:44:32.746Z,19.73
2023-01-05T09:47:23.570Z,22.17
2023-01-05T09:49:50.931Z,15.77
2023-01-05T09:52:22.491Z,21.83
2023-01-05T09:54:49.293Z,15.48
2023-01-05T09:57:21.101Z,17.10
2023-01-05T10:00:08.673Z,22.15
2023-01-05T10:02:55.112Z,21.13
2023-01-05T10:05:23.954Z,18.13
2023-01-05T10:08:23.980Z,21.58
2023-01-05T10:11:37.621Z,14.82
2023-01-05T10:14:23.313Z,19.38
2023-01-05T10:16:57.680Z,19.02
2023-01-05T10:19:34.554Z,23.73
2023-01-05T10:22:42.162Z,16.55
2023-01-05T10:25:29.439Z,17.88
2023-01-05T10:28:37.590Z,11.50
2023-01-05T10:31:23.497Z,17.67
2023-01-05T10:34:19.390Z,13.88
2023-01-05T10:37:10.366Z,12.02
2023-01-05T10:40:40.024Z,18.02
2023-01-05T10:43:24.748Z,19.52
2023-01-05T10:46:28.618Z,13.90
2023-01-05T10:48:40.953Z,17.25
2023-01-05T10:51:09.687Z,14.77
2023-01-05T10:53:43.401Z,17.00
2023-01-05T10:56:23.328Z,16.20
2023-01-05T10:59:11.419Z,15.80
2023-01-05T11:01:44.382Z,19.40
2023-01-05T11:04:34.590Z,21.52
2023-01-05T11:07:07.383Z,13.85
2023-01-05T11:09:40.964Z,17.15
2023-01-05T11:12:21.511Z,19.65
2023-01-05T11:14:58.935Z,19.25
2023-01-05T11:17:30.902Z,15.88
2023-01-05T11:19:58.310Z,16.60
2023-01-05T11:22:34.945Z,18.70
2023-01-05T11:25:26.352Z,18.33
2023-01-05T11:28:16.360Z,16.33
2023-01-05T11:31:00.675Z,17.70
2023-01-05T11:33:30.606Z,19.05
2023-01-05T11:35:59.068Z,19.65
2023-01-05T11:38:30.477Z,17.58
2023-01-05T11:41:01.353Z,18.92
2023-01-05T11:43:32.125Z,16.88
2023-01-05T11:46:03.993Z,15.95
2023-01-05T11:48:36.217Z,21.73
2023-01-05T11:51:03.493Z,26.25
2023-01-05T11:53:39.426Z,19.90
2023-01-05T11:56:22.920Z,23.08
2023-01-05T11:58:55.873Z,20.65
2023-01-05T12:01:34.567Z,35.65
2023-01-05T12:04:28.540Z,18.90
2023-01-05T12:07:35.020Z,22.55
2023-01-05T12:10:41.358Z,22.13
2023-01-05T12:13:23.147Z,18.48
2023-01-05T12:16:11.111Z,21.67
2023-01-05T12:19:05.219Z,18.80
2023-01-05T12:21:43.465Z,23.75
2023-01-05T12:24:29.582Z,17.45
2023-01-05T12:27:11.849Z,16.73
2023-01-05T12:37:06.357Z,23.63
2023-01-05T12:40:06.545Z,17.88
2023-01-05T12:42:59.047Z,16.30
2023-01-05T12:45:56.536Z,16.63
2023-01-05T12:48:42.620Z,16.02
2023-01-05T12:51:38.020Z,12.73
2023-01-05T12:54:50.762Z,11.73
2023-01-05T12:57:35.470Z,28.88
2023-01-05T13:00:14.652Z,16.95
2023-01-05T13:03:02.530Z,19.88
2023-01-05T13:05:50.516Z,16.98
2023-01-05T13:08:43.354Z,20.92
2023-01-05T13:11:38.734Z,16.15
2023-01-05T13:14:14.841Z,12.55
2023-01-05T13:16:48.327Z,21.02
2023-01-05T13:19:26.268Z,21.90
2023-01-05T13:21:54.937Z,11.55
2023-01-05T13:24:41.261Z,16.27
2023-01-05T13:27:11.206Z,15.98
2023-01-05T13:29:46.230Z,14.93
2023-01-05T13:32:32.664Z,19.23
2023-01-05T13:35:45.365Z,19.08
2023-01-05T13:38:53.480Z,20.15
2023-01-05T13:41:48.732Z,20.20
2023-01-05T13:44:53.600Z,18.75
2023-01-05T13:48:12.657Z,17.02
2023-01-05T13:51:08.416Z,22.48
2023-01-05T13:53:41.584Z,20.85
2023-01-05T13:56:32.423Z,22.85
2023-01-05T13:59:29.057Z,22.75
2023-01-05T14:02:19.272Z,17.23
2023-01-05T14:04:47.027Z,29.67
2023-01-05T14:07:21.626Z,23.73
2023-01-05T14:09:55.735Z,20.15
2023-01-05T14:12:27.530Z,17.73
2023-01-05T14:15:14.870Z,19.75
2023-01-05T14:17:58.055Z,22.20
2023-01-05T14:20:58.444Z,24.83
2023-01-05T14:23:29.915Z,18.95
2023-01-05T14:26:01.545Z,19.92
2023-01-05T14:28:30.298Z,19.27
2023-01-05T14:31:11.340Z,15.73
2023-01-05T14:34:03.375Z,21.15
2023-01-05T14:37:04.443Z,13.98
2023-01-05T14:39:42.664Z,22.10
2023-01-05T14:42:12.492Z,21.67
2023-01-05T14:45:03.010Z,19.08
2023-01-05T14:47:47.104Z,23.80
2023-01-05T14:50:33.581Z,26.05
2023-01-05T14:53:34.272Z,18.48
2023-01-05T14:56:01.035Z,22.33
2023-01-05T14:58:36.717Z,22.20
2023-01-05T15:01:18.912Z,23.35
2023-01-05T15:03:57.451Z,17.30
2023-01-05T15:06:42.040Z,22.25
2023-01-05T15:09:33.479Z,24.48
2023-01-05T15:12:44.031Z,48.17
2023-01-05T15:15:47.886Z,34.15
2023-01-05T15:19:10.532Z,19.27
2023-01-05T15:22:38.221Z,23.33
2023-01-05T15:25:22.739Z,12.05
2023-01-05T15:28:05.210Z,23.30
2023-01-05T15:31:02.430Z,16.75
2023-01-05T15:33:44.100Z,21.48
2023-01-05T15:36:54.565Z,18.63
2023-01-05T15:39:46.605Z,17.65
2023-01-05T15:42:39.437Z,20.27
2023-01-05T15:45:35.808Z,15.07
2023-01-05T15:48:11.139Z,17.92
2023-01-05T15:50:50.093Z,16.65
2023-01-05T15:53:38.438Z,20.05
2023-01-05T15:56:26.504Z,17.15
2023-01-05T15:58:53.616Z,16.05
2023-01-05T16:01:20.617Z,20.02
2023-01-05T16:03:48.915Z,14.48
2023-01-05T16:06:28.010Z,13.52
2023-01-05T16:09:02.068Z,16.20
2023-01-05T16:11:39.673Z,15.38
2023-01-05T16:14:19.547Z,15.23
2023-01-05T16:17:00.246Z,12.60
2023-01-05T16:19:58.067Z,14.30
2023-01-05T16:22:39.322Z,12.10
2023-01-05T16:25:23.481Z,12.63
2023-01-05T16:28:01.164Z,10.70
2023-01-05T16:30:42.014Z,13.13
2023-01-05T16:33:12.103Z,11.48
2023-01-05T16:35:44.575Z,14.38
2023-01-05T16:38:11.239Z,10.60
2023-01-05T16:41:09.013Z,14.25
2023-01-05T16:43:40.371Z,16.63
2023-01-05T16:46:20.888Z,11.52
2023-01-05T16:48:53.942Z,10.80
2023-01-05T16:51:32.504Z,13.20
2023-01-05T16:54:22.066Z,12.60
2023-01-05T16:57:01.847Z,12.25
2023-01-05T16:59:49.993Z,13.10
2023-01-05T17:02:44.521Z,10.20
2023-01-05T17:05:18.977Z,12.43
2023-01-05T17:07:51.724Z,12.77
2023-01-05T17:10:27.150Z,8.40
2023-01-05T17:13:26.828Z,10.90
2023-01-05T17:15:53.937Z,12.48
2023-01-05T17:18:25.177Z,13.23
2023-01-05T17:20:55.955Z,11.23
2023-01-05T17:23:46.881Z,11.13
2023-01-05T17:26:28.873Z,8.30
2023-01-05T17:31:34.978Z,13.13
2023-01-05T17:34:04.208Z,16.80
2023-01-05T17:36:34.751Z,15.20
2023-01-05T17:39:03.205Z,9.70
2023-01-05T17:41:29.935Z,15.25
2023-01-05T17:43:56.868Z,14.68
2023-01-05T17:46:33.559Z,14.10
2023-01-05T17:49:00.822Z,13.52
2023-01-05T17:51:29.477Z,14.13
2023-01-05T17:54:00.255Z,12.18
2023-01-05T17:56:27.192Z,15.50
2023-01-05T17:58:54.044Z,14.73
2023-01-05T18:01:20.985Z,12.75
2023-01-05T18:06:19.645Z,16.50
2023-01-05T18:08:46.574Z,18.90
2023-01-05T18:11:14.800Z,17.02
2023-01-05T18:16:11.975Z,17.15
2023-01-05T18:18:38.807Z,16.45
2023-01-05T18:21:07.392Z,22.52
2023-01-05T18:23:34.771Z,19.45
2023-01-05T18:26:09.815Z,16.05
2023-01-05T18:28:37.748Z,24.70
2023-01-05T18:31:16.762Z,16.42
2023-01-05T18:33:43.705Z,16.33
2023-01-05T18:36:14.207Z,18.77
2023-01-05T18:38:42.448Z,19.27
2023-01-05T18:41:10.670Z,19.95
2023-01-05T18:43:39.037Z,16.50
2023-01-05T18:46:07.181Z,16.75
2023-01-05T18:48:33.950Z,20.02
2023-01-05T18:51:04.982Z,19.08
2023-01-05T18:53:31.942Z,19.65
2023-01-05T18:55:58.679Z,15.18
2023-01-05T18:58:25.442Z,16.95
2023-01-05T19:00:52.205Z,16.38
2023-01-05T19:03:18.969Z,15.13
2023-01-05T19:05:45.827Z,14.95
2023-01-05T19:08:14.032Z,11.68
2023-01-05T19:10:41.264Z,15.27
2023-01-05T19:13:09.791Z,12.65
2023-01-05T19:15:39.186Z,10.05
2023-01-05T19:18:06.481Z,13.45
2023-01-05T19:20:33.315Z,15.52
2023-01-05T19:23:01.198Z,10.48
2023-01-05T19:25:29.613Z,11.30
2023-01-05T19:27:58.035Z,14.27
2023-01-05T19:30:25.778Z,11.40
2023-01-05T19:32:52.726Z,14.73
2023-01-05T19:35:21.136Z,11.75
2023-01-05T19:37:47.973Z,12.85
2023-01-05T19:40:17.684Z,10.95
2023-01-05T19:42:45.642Z,10.65
2023-01-05T19:45:12.363Z,13.30
2023-01-05T19:47:43.162Z,11.23
2023-01-05T19:50:12.303Z,9.43
2023-01-05T19:52:39.613Z,8.57
2023-01-05T19:55:13.183Z,13.55
2023-01-05T19:57:39.926Z,9.52
2023-01-05T20:00:07.904Z,10.32
2023-01-05T20:02:34.634Z,12.60
2023-01-05T20:05:01.410Z,11.63
2023-01-05T20:07:28.246Z,7.53
2023-01-05T20:09:54.957Z,10.15
2023-01-05T20:12:23.733Z,12.70
2023-01-05T20:14:50.465Z,11.52
2023-01-05T20:17:18.690Z,9.63
2023-01-05T20:19:45.782Z,12.25
2023-01-05T20:22:13.602Z,13.32
2023-01-05T20:24:41.018Z,10.98
2023-01-05T20:27:13.140Z,14.50
2023-01-05T20:29:42.591Z,11.90
2023-01-05T20:32:16.617Z,10.98
2023-01-05T20:34:49.230Z,15.55
2023-01-05T20:37:16.233Z,15.65
2023-01-05T20:39:43.838Z,10.77
2023-01-05T20:42:12.548Z,13.57
2023-01-05T20:44:44.453Z,9.90
2023-01-05T20:47:11.941Z,14.15
2023-01-05T20:49:40.749Z,14.07
2023-01-05T20:52:10.058Z,13.30
2023-01-05T20:54:38.934Z,13.07
2023-01-05T20:57:13.503Z,10.18
2023-01-05T20:59:40.958Z,12.10
2023-01-05T21:02:22.299Z,11.13
2023-01-05T21:04:53.172Z,10.43
2023-01-05T21:07:20.375Z,9.60
2023-01-05T21:09:47.450Z,10.65
2023-01-05T21:12:14.202Z,14.80
2023-01-05T21:14:41.194Z,10.18
2023-01-05T21:17:08.545Z,13.48
2023-01-05T21:19:36.639Z,12.93
2023-01-05T21:22:03.492Z,8.85
2023-01-05T21:24:30.265Z,6.53
2023-01-05T21:26:57.054Z,8.00
2023-01-05T21:29:26.038Z,12.27
2023-01-05T21:31:56.188Z,8.43
2023-01-05T21:34:23.499Z,9.27
2023-01-05T21:36:50.557Z,6.35
2023-01-05T21:39:25.861Z,8.00
2023-01-05T21:42:12.626Z,9.07
2023-01-05T21:44:39.837Z,6.35
2023-01-05T21:47:07.530Z,5.35
2023-01-05T21:49:35.996Z,6.40
2023-01-05T21:52:22.772Z,5.70
2023-01-05T21:55:08.453Z,7.45
2023-01-05T21:57:35.315Z,9.40
2023-01-05T22:00:02.227Z,8.48
2023-01-05T22:02:29.030Z,6.38
2023-01-05T22:04:55.820Z,5.82
2023-01-05T22:07:23.076Z,10.77
2023-01-05T22:09:49.840Z,6.97
2023-01-05T22:12:16.616Z,6.25
2023-01-05T22:14:43.408Z,7.85
2023-01-05T22:17:10.159Z,6.45
2023-01-05T22:19:37.173Z,5.13
2023-01-05T22:22:04.892Z,9.00
2023-01-05T22:24:31.629Z,7.05
2023-01-05T22:26:58.607Z,6.80
2023-01-05T22:29:25.837Z,6.50
2023-01-05T22:31:54.657Z,7.90
2023-01-05T22:34:21.600Z,5.32
2023-01-05T22:36:49.417Z,9.43
2023-01-05T22:39:16.568Z,8.35
2023-01-05T22:41:43.357Z,5.50
2023-01-05T22:44:10.161Z,6.50
2023-01-05T22:46:36.986Z,10.70
2023-01-05T22:49:04.341Z,4.60
2023-01-05T22:51:35.953Z,8.30
2023-01-05T22:54:23.938Z,7.07
2023-01-05T22:56:50.660Z,4.88
2023-01-05T22:59:17.392Z,7.38
2023-01-05T23:01:45.149Z,9.77
2023-01-05T23:04:12.489Z,7.53
2023-01-05T23:06:39.923Z,4.70
2023-01-05T23:09:11.074Z,6.07
2023-01-05T23:11:42.228Z,3.75
2023-01-05T23:14:12.033Z,4.03
2023-01-05T23:16:39.313Z,5.55
2023-01-05T23:19:08.707Z,10.13
2023-01-05T23:21:36.582Z,5.50
2023-01-05T23:24:04.188Z,3.60
2023-01-05T23:26:31.130Z,6.63
2023-01-05T23:28:58.368Z,5.10
2023-01-05T23:31:27.541Z,4.80
2023-01-05T23:33:55.333Z,11.10
2023-01-05T23:36:23.596Z,5.20
2023-01-05T23:38:50.810Z,6.10
2023-01-05T23:41:19.906Z,5.68
2023-01-05T23:43:47.114Z,6.63
2023-01-05T23:46:23.585Z,4.40
2023-01-05T23:48:52.771Z,5.82
2023-01-05T23:51:20.391Z,4.85
2023-01-05T23:53:53.626Z,7.97
2023-01-05T23:56:21.960Z,3.28
2023-01-05T23:58:53.933Z,4.38
